createdAt,value
2018-02-20T00:00:19.516Z,44.92
2018-02-20T00:02:49.022Z,43.03
2018-02-20T00:05:17.916Z,45.47
2018-02-20T00:07:46.308Z,42.55
2018-02-20T00:10:14.194Z,38.67
2018-02-20T00:12:41.707Z,37.38
2018-02-20T00:15:10.273Z,43.97
2018-02-20T00:17:37.903Z,38.75
2018-02-20T00:20:05.442Z,40.47
2018-02-20T00:22:33.878Z,42.60
2018-02-20T00:25:02.158Z,40.17
2018-02-20T00:27:29.831Z,43.00
2018-02-20T00:29:57.345Z,45.65
2018-02-20T00:32:25.008Z,44.03
2018-02-20T00:34:52.619Z,47.30
2018-02-20T00:37:20.134Z,44.20
2018-02-20T00:39:47.799Z,42.42
2018-02-20T00:42:15.495Z,47.65
2018-02-20T00:44:44.006Z,51.53
2018-02-20T00:47:12.373Z,48.70
2018-02-20T00:49:39.946Z,45.75
2018-02-20T00:52:07.437Z,45.60
2018-02-20T00:54:34.952Z,43.33
2018-02-20T00:57:02.800Z,50.12
2018-02-20T00:59:30.427Z,49.58
2018-02-20T01:01:58.139Z,46.63
2018-02-20T01:04:26.422Z,44.25
2018-02-20T01:06:53.907Z,50.10
2018-02-20T01:09:21.483Z,45.30
2018-02-20T01:11:49.058Z,50.67
2018-02-20T01:14:16.600Z,48.20
2018-02-20T01:16:44.116Z,49.33
2018-02-20T01:19:12.387Z,54.20
2018-02-20T01:21:40.637Z,51.28
2018-02-20T01:24:08.237Z,49.45
2018-02-20T01:26:35.810Z,48.25
2018-02-20T01:29:03.289Z,51.65
2018-02-20T01:31:30.775Z,55.85
2018-02-20T01:33:58.482Z,60.60
2018-02-20T01:36:26.223Z,49.42
2018-02-20T01:38:54.603Z,64.25
2018-02-20T01:41:22.937Z,55.97
2018-02-20T01:43:50.470Z,46.28
2018-02-20T01:46:18.080Z,52.47
2018-02-20T01:48:45.680Z,53.47
2018-02-20T01:51:13.173Z,53.87
2018-02-20T01:53:40.654Z,54.05
2018-02-20T01:56:08.219Z,60.50
2018-02-20T01:58:35.815Z,62.88
2018-02-20T02:01:03.538Z,64.12
2018-02-20T02:03:31.203Z,62.78
2018-02-20T02:05:58.860Z,60.72
2018-02-20T02:08:26.507Z,56.28
2018-02-20T02:10:54.088Z,56.00
2018-02-20T02:13:21.685Z,56.22
2018-02-20T02:15:49.552Z,62.22
2018-02-20T02:18:17.070Z,67.15
2018-02-20T02:20:44.655Z,66.10
2018-02-20T02:23:12.182Z,64.30
2018-02-20T02:25:39.890Z,64.57
2018-02-20T02:28:07.540Z,67.07
2018-02-20T02:30:35.079Z,65.93
2018-02-20T02:33:02.660Z,66.37
2018-02-20T02:35:31.139Z,68.45
2018-02-20T02:37:58.804Z,67.93
2018-02-20T02:40:27.253Z,64.10
2018-02-20T02:42:54.746Z,71.75
2018-02-20T02:45:22.276Z,74.53
2018-02-20T02:47:49.934Z,75.28
2018-02-20T02:50:17.419Z,71.87
2018-02-20T02:52:44.906Z,70.87
2018-02-20T02:55:12.403Z,69.03
2018-02-20T02:57:40.104Z,71.03
2018-02-20T03:00:07.630Z,66.30
2018-02-20T03:02:35.130Z,78.60
2018-02-20T03:05:04.321Z,62.25
2018-02-20T03:07:31.854Z,72.93
2018-02-20T03:09:59.546Z,69.93
2018-02-20T03:12:27.190Z,74.50
2018-02-20T03:14:54.824Z,74.75
2018-02-20T03:17:22.527Z,61.72
2018-02-20T03:19:50.157Z,66.03
2018-02-20T03:22:17.634Z,62.53
2018-02-20T03:24:45.158Z,58.65
2018-02-20T03:27:12.646Z,61.25
2018-02-20T03:29:40.900Z,61.53
2018-02-20T03:32:08.402Z,59.97
2018-02-20T03:34:36.646Z,61.78
2018-02-20T03:37:04.288Z,58.35
2018-02-20T03:39:31.943Z,61.03
2018-02-20T03:41:59.461Z,64.30
2018-02-20T03:44:27.163Z,61.42
2018-02-20T03:46:54.841Z,65.80
2018-02-20T03:49:22.358Z,63.08
2018-02-20T03:51:50.607Z,61.08
2018-02-20T03:54:18.308Z,55.75
2018-02-20T03:56:46.731Z,52.10
2018-02-20T03:59:14.434Z,53.35
2018-02-20T04:01:41.959Z,58.55
2018-02-20T04:04:09.620Z,56.15
2018-02-20T04:06:37.110Z,56.25
2018-02-20T04:09:05.385Z,56.28
2018-02-20T04:11:32.880Z,57.65
2018-02-20T04:14:00.378Z,54.42
2018-02-20T04:16:28.013Z,53.50
2018-02-20T04:18:56.498Z,56.35
2018-02-20T04:21:24.359Z,64.68
2018-02-20T04:23:51.942Z,56.40
2018-02-20T04:26:19.459Z,58.53
2018-02-20T04:28:46.942Z,59.63
2018-02-20T04:31:14.431Z,53.60
2018-02-20T04:33:41.930Z,51.63
2018-02-20T04:36:09.608Z,59.30
2018-02-20T04:38:37.125Z,59.25
2018-02-20T04:41:04.635Z,54.00
2018-02-20T04:43:32.122Z,59.30
2018-02-20T04:45:59.632Z,53.67
2018-02-20T04:48:27.134Z,56.05
2018-02-20T04:50:54.775Z,66.03
2018-02-20T04:53:22.306Z,69.70
2018-02-20T04:55:49.960Z,65.22
2018-02-20T04:58:17.612Z,65.37
2018-02-20T05:00:45.886Z,61.17
2018-02-20T05:03:14.276Z,68.22
2018-02-20T05:05:42.533Z,62.47
2018-02-20T05:08:10.022Z,61.50
2018-02-20T05:13:12.383Z,55.80
2018-02-20T05:15:40.878Z,63.20
2018-02-20T05:18:08.386Z,52.42
2018-02-20T05:20:36.001Z,59.30
2018-02-20T05:23:03.775Z,60.00
2018-02-20T05:25:31.318Z,61.90
2018-02-20T05:27:59.055Z,59.28
2018-02-20T05:30:26.597Z,52.62
2018-02-20T05:32:54.159Z,61.40
2018-02-20T05:35:21.729Z,59.78
2018-02-20T05:37:49.235Z,56.30
2018-02-20T05:40:16.730Z,58.28
2018-02-20T05:42:44.218Z,59.53
2018-02-20T05:45:12.587Z,57.50
2018-02-20T05:47:40.105Z,58.58
2018-02-20T05:50:07.646Z,67.00
2018-02-20T05:52:36.171Z,57.22
2018-02-20T05:55:03.695Z,61.35
2018-02-20T05:57:31.182Z,61.50
2018-02-20T05:59:58.703Z,61.63
2018-02-20T06:02:27.155Z,59.60
2018-02-20T06:04:54.993Z,62.90
2018-02-20T06:07:22.620Z,64.43
2018-02-20T06:09:50.272Z,69.45
2018-02-20T06:12:18.692Z,62.45
2018-02-20T06:14:46.257Z,69.07
2018-02-20T06:17:13.741Z,67.07
2018-02-20T06:19:41.311Z,62.75
2018-02-20T06:22:08.912Z,67.90
2018-02-20T06:24:36.692Z,67.20
2018-02-20T06:27:04.219Z,69.53
2018-02-20T06:29:32.515Z,65.35
2018-02-20T06:31:59.999Z,62.15
2018-02-20T06:34:27.494Z,72.90
2018-02-20T06:36:55.012Z,67.65
2018-02-20T06:39:22.503Z,68.32
2018-02-20T06:41:49.998Z,69.07
2018-02-20T06:44:18.558Z,76.32
2018-02-20T06:46:46.046Z,69.62
2018-02-20T06:49:13.579Z,63.53
2018-02-20T06:51:41.862Z,78.43
2018-02-20T06:54:10.109Z,73.65
2018-02-20T06:56:37.619Z,74.85
2018-02-20T06:59:05.118Z,70.32
2018-02-20T07:01:32.604Z,75.35
2018-02-20T07:04:00.118Z,69.25
2018-02-20T07:06:27.607Z,76.35
2018-02-20T07:08:55.354Z,68.37
2018-02-20T07:11:23.662Z,74.28
2018-02-20T07:13:51.937Z,75.82
2018-02-20T07:16:19.484Z,74.70
2018-02-20T07:18:46.993Z,69.97
2018-02-20T07:21:14.474Z,72.80
2018-02-20T07:23:41.986Z,74.03
2018-02-20T07:26:10.276Z,71.12
2018-02-20T07:28:37.774Z,67.53
2018-02-20T07:31:05.300Z,72.65
2018-02-20T07:33:32.785Z,60.30
2018-02-20T07:36:00.286Z,72.62
2018-02-20T07:38:27.912Z,74.15
2018-02-20T07:40:55.414Z,69.65
2018-02-20T07:43:23.662Z,63.85
2018-02-20T07:45:51.150Z,62.25
2018-02-20T07:48:19.421Z,57.78
2018-02-20T07:50:47.704Z,63.97
2018-02-20T07:53:15.213Z,61.15
2018-02-20T07:55:43.043Z,60.67
2018-02-20T07:58:10.610Z,56.42
2018-02-20T08:00:38.094Z,62.08
2018-02-20T08:03:05.678Z,59.13
2018-02-20T08:05:33.974Z,58.90
2018-02-20T08:08:01.458Z,54.40
2018-02-20T08:10:28.933Z,59.83
2018-02-20T08:12:56.552Z,58.30
2018-02-20T08:15:24.839Z,57.78
2018-02-20T08:17:52.819Z,57.20
2018-02-20T08:20:21.146Z,56.13
2018-02-20T08:22:48.622Z,65.05
2018-02-20T08:25:16.114Z,60.78
2018-02-20T08:27:44.434Z,54.10
2018-02-20T08:30:11.929Z,59.83
2018-02-20T08:32:39.420Z,60.47
2018-02-20T08:35:06.921Z,71.85
2018-02-20T08:37:34.559Z,64.20
2018-02-20T08:40:02.700Z,63.03
2018-02-20T08:42:30.998Z,61.35
2018-02-20T08:44:59.238Z,59.95
2018-02-20T08:47:27.526Z,55.92
2018-02-20T08:49:55.770Z,57.78
2018-02-20T08:52:23.250Z,53.40
2018-02-20T08:54:50.748Z,55.15
2018-02-20T08:57:18.242Z,53.65
2018-02-20T08:59:45.730Z,49.40
2018-02-20T09:02:14.018Z,50.90
2018-02-20T09:04:42.346Z,59.72
2018-02-20T09:07:09.835Z,50.20
2018-02-20T09:09:37.362Z,57.75
2018-02-20T09:12:04.851Z,54.10
2018-02-20T09:14:32.342Z,55.53
2018-02-20T09:16:59.838Z,54.35
2018-02-20T09:19:27.354Z,54.63
2018-02-20T09:21:54.854Z,56.08
2018-02-20T09:24:22.341Z,53.03
2018-02-20T09:26:49.898Z,55.47
2018-02-20T09:29:17.385Z,56.67
2018-02-20T09:31:44.887Z,57.45
2018-02-20T09:34:13.165Z,56.40
2018-02-20T09:36:40.692Z,51.47
2018-02-20T09:39:08.233Z,53.10
2018-02-20T09:41:35.721Z,53.28
2018-02-20T09:44:03.215Z,61.70
2018-02-20T09:46:31.465Z,57.45
2018-02-20T09:48:58.946Z,59.20
2018-02-20T09:51:26.474Z,56.00
2018-02-20T09:53:53.973Z,58.60
2018-02-20T09:56:22.226Z,60.63
2018-02-20T09:58:49.758Z,65.72
2018-02-20T10:01:17.253Z,55.97
2018-02-20T10:03:44.739Z,55.95
2018-02-20T10:06:12.256Z,53.13
2018-02-20T10:08:40.294Z,57.10
2018-02-20T10:11:07.773Z,56.80
2018-02-20T10:13:36.046Z,55.42
2018-02-20T10:16:03.588Z,49.78
2018-02-20T10:18:31.094Z,54.55
2018-02-20T10:20:58.582Z,59.17
2018-02-20T10:23:26.259Z,55.90
2018-02-20T10:25:54.967Z,55.42
2018-02-20T10:28:22.499Z,52.10
2018-02-20T10:30:50.006Z,48.80
2018-02-20T10:33:17.542Z,50.78
2018-02-20T10:35:45.022Z,49.13
2018-02-20T10:38:12.519Z,53.75
2018-02-20T10:40:40.779Z,53.60
2018-02-20T10:43:08.257Z,51.55
2018-02-20T10:45:35.817Z,49.90
2018-02-20T10:48:03.397Z,55.35
2018-02-20T10:50:31.246Z,56.42
2018-02-20T10:52:58.733Z,50.03
2018-02-20T10:55:26.260Z,54.75
2018-02-20T10:57:53.769Z,51.28
2018-02-20T11:00:21.264Z,53.43
2018-02-20T11:02:49.534Z,47.20
2018-02-20T11:05:17.795Z,48.20
2018-02-20T11:07:45.308Z,52.23
2018-02-20T11:10:12.826Z,46.70
2018-02-20T11:12:40.322Z,45.07
2018-02-20T11:15:07.826Z,42.77
2018-02-20T11:17:35.310Z,50.10
2018-02-20T11:20:03.566Z,41.00
2018-02-20T11:22:31.094Z,45.27
2018-02-20T11:24:59.355Z,48.50
2018-02-20T11:27:26.858Z,45.50
2018-02-20T11:29:54.382Z,46.77
2018-02-20T11:32:21.878Z,50.03
2018-02-20T11:34:49.395Z,45.63
2018-02-20T11:37:16.908Z,46.07
2018-02-20T11:39:45.166Z,52.03
2018-02-20T11:42:13.488Z,44.53
2018-02-20T11:44:40.990Z,44.97
2018-02-20T11:47:08.481Z,44.47
2018-02-20T11:49:36.734Z,44.90
2018-02-20T11:52:04.258Z,42.60
2018-02-20T11:54:31.742Z,44.93
2018-02-20T11:56:59.373Z,50.10
2018-02-20T11:59:27.625Z,42.00
2018-02-20T12:01:55.150Z,42.00
2018-02-20T12:04:22.654Z,44.43
2018-02-20T12:06:50.345Z,40.33
2018-02-20T12:09:17.853Z,45.92
2018-02-20T12:11:46.109Z,44.70
2018-02-20T12:14:13.610Z,42.62
2018-02-20T12:16:41.130Z,45.90
2018-02-20T12:19:08.701Z,43.42
2018-02-20T12:21:36.192Z,49.88
2018-02-20T12:24:03.701Z,54.67
2018-02-20T12:26:31.190Z,49.85
2018-02-20T12:28:59.446Z,49.42
2018-02-20T12:31:26.946Z,50.63
2018-02-20T12:33:54.453Z,47.67
2018-02-20T12:36:21.955Z,49.65
2018-02-20T12:38:49.460Z,44.00
2018-02-20T12:41:16.988Z,49.30
2018-02-20T12:43:45.411Z,58.42
2018-02-20T12:46:12.970Z,57.67
2018-02-20T12:48:40.473Z,57.67
2018-02-20T12:51:07.966Z,54.30
2018-02-20T12:53:35.523Z,55.88
2018-02-20T12:56:02.990Z,50.67
2018-02-20T12:58:31.250Z,54.30
2018-02-20T13:00:58.803Z,59.63
2018-02-20T13:03:26.306Z,57.97
2018-02-20T13:05:53.940Z,55.47
2018-02-20T13:08:21.526Z,54.00
2018-02-20T13:10:49.010Z,51.03
2018-02-20T13:13:17.266Z,58.03
2018-02-20T13:15:44.819Z,55.58
2018-02-20T13:18:12.305Z,50.65
2018-02-20T13:20:40.558Z,55.90
2018-02-20T13:23:08.071Z,59.00
2018-02-20T13:25:35.553Z,63.92
2018-02-20T13:28:03.054Z,54.47
2018-02-20T13:30:31.346Z,60.08
2018-02-20T13:32:59.681Z,62.08
2018-02-20T13:35:27.190Z,57.35
2018-02-20T13:37:54.710Z,57.62
2018-02-20T13:40:22.200Z,57.83
2018-02-20T13:42:49.694Z,63.97
2018-02-20T13:45:17.206Z,63.30
2018-02-20T13:47:44.710Z,57.60
2018-02-20T13:50:12.217Z,57.17
2018-02-20T13:52:40.489Z,61.85
2018-02-20T13:55:08.766Z,68.05
2018-02-20T13:57:37.064Z,61.03
2018-02-20T14:00:04.554Z,52.40
2018-02-20T14:02:32.042Z,58.38
2018-02-20T14:04:59.538Z,59.65
2018-02-20T14:07:27.103Z,62.75
2018-02-20T14:09:54.637Z,58.53
2018-02-20T14:12:22.902Z,57.45
2018-02-20T14:14:50.393Z,53.70
2018-02-20T14:17:17.917Z,58.83
2018-02-20T14:19:45.428Z,57.78
2018-02-20T14:22:12.918Z,56.80
2018-02-20T14:24:40.407Z,65.65
2018-02-20T14:27:08.694Z,56.67
2018-02-20T14:29:36.174Z,65.68
2018-02-20T14:32:03.668Z,63.42
2018-02-20T14:34:31.198Z,54.25
2018-02-20T14:36:58.689Z,64.85
2018-02-20T14:39:26.175Z,57.62
2018-02-20T14:41:54.446Z,55.38
2018-02-20T14:44:21.946Z,58.90
2018-02-20T14:46:49.442Z,54.45
2018-02-20T14:49:16.990Z,57.47
2018-02-20T14:51:44.438Z,54.38
2018-02-20T14:54:11.950Z,64.78
2018-02-20T14:56:40.230Z,57.45
2018-02-20T14:59:08.490Z,60.47
2018-02-20T15:01:35.978Z,62.25
2018-02-20T15:04:04.259Z,70.72
2018-02-20T15:06:31.746Z,65.43
2018-02-20T15:08:59.241Z,61.63
2018-02-20T15:11:26.744Z,59.67
2018-02-20T15:13:54.217Z,56.35
2018-02-20T15:16:21.694Z,64.32
2018-02-20T15:18:49.186Z,63.97
2018-02-20T15:21:16.665Z,67.00
2018-02-20T15:23:44.228Z,57.72
2018-02-20T15:26:11.719Z,53.97
2018-02-20T15:28:39.201Z,59.33
2018-02-20T15:31:06.741Z,53.80
2018-02-20T15:33:34.218Z,59.55
2018-02-20T15:36:01.714Z,55.20
2018-02-20T15:38:29.995Z,54.67
2018-02-20T15:40:57.481Z,63.13
2018-02-20T15:43:24.977Z,69.18
2018-02-20T15:45:52.532Z,60.78
2018-02-20T15:48:20.062Z,66.40
2018-02-20T15:50:47.550Z,66.55
2018-02-20T15:53:15.044Z,60.60
2018-02-20T15:55:43.324Z,61.45
2018-02-20T15:58:10.811Z,71.85
2018-02-20T16:00:38.322Z,75.43
2018-02-20T16:03:06.754Z,66.80
2018-02-20T16:05:34.455Z,61.95
2018-02-20T16:08:02.266Z,64.25
2018-02-20T16:10:29.916Z,68.03
2018-02-20T16:12:57.659Z,65.82
2018-02-20T16:15:25.442Z,62.05
2018-02-20T16:17:53.208Z,61.40
2018-02-20T16:20:20.826Z,68.40
2018-02-20T16:22:48.484Z,65.47
2018-02-20T16:25:15.990Z,67.87
2018-02-20T16:27:43.598Z,62.45
2018-02-20T16:30:11.906Z,74.10
2018-02-20T16:32:40.344Z,59.90
2018-02-20T16:35:08.018Z,75.43
2018-02-20T16:37:35.501Z,67.07
2018-02-20T16:40:02.970Z,77.45
2018-02-20T16:42:31.265Z,74.18
2018-02-20T16:44:59.705Z,71.53
2018-02-20T16:47:27.308Z,73.05
2018-02-20T16:50:01.360Z,64.87
2018-02-20T16:52:29.335Z,75.20
2018-02-20T16:54:57.058Z,72.72
2018-02-20T16:57:24.919Z,82.35
2018-02-20T16:59:53.138Z,74.82
2018-02-20T17:02:21.814Z,82.95
2018-02-20T17:04:52.837Z,85.50
2018-02-20T17:07:21.638Z,77.68
2018-02-20T17:09:59.537Z,81.65
2018-02-20T17:12:27.630Z,80.95
2018-02-20T17:14:55.371Z,75.20
2018-02-20T17:17:23.037Z,72.32
2018-02-20T17:19:51.092Z,76.90
2018-02-20T17:22:22.383Z,84.03
2018-02-20T17:24:51.699Z,86.60
2018-02-20T17:27:21.426Z,75.47
2018-02-20T17:29:57.324Z,68.32
2018-02-20T17:32:27.029Z,70.32
2018-02-20T17:34:54.602Z,78.45
2018-02-20T17:37:23.413Z,64.30
2018-02-20T17:39:53.052Z,64.43
2018-02-20T17:42:21.552Z,65.90
2018-02-20T17:44:49.913Z,66.62
2018-02-20T17:47:20.849Z,78.65
2018-02-20T17:49:49.267Z,70.70
2018-02-20T17:52:22.610Z,67.60
2018-02-20T17:54:51.864Z,62.58
2018-02-20T17:57:19.648Z,65.47
2018-02-20T17:59:49.280Z,62.67
2018-02-20T18:02:18.419Z,64.90
2018-02-20T18:04:48.468Z,67.32
2018-02-20T18:07:16.254Z,70.87
2018-02-20T18:09:43.814Z,58.28
2018-02-20T18:12:13.824Z,62.33
2018-02-20T18:14:42.457Z,61.20
2018-02-20T18:17:10.984Z,58.35
2018-02-20T18:19:39.098Z,62.85
2018-02-20T18:22:09.241Z,58.30
2018-02-20T18:24:37.498Z,60.22
2018-02-20T18:27:11.254Z,68.65
2018-02-20T18:29:38.895Z,58.08
2018-02-20T18:32:20.685Z,55.72
2018-02-20T18:34:58.349Z,65.43
2018-02-20T18:37:32.433Z,61.37
2018-02-20T18:40:02.247Z,56.10
2018-02-20T18:42:37.987Z,61.30
2018-02-20T18:45:13.598Z,60.63
2018-02-20T18:47:42.068Z,67.78
2018-02-20T18:50:14.164Z,61.72
2018-02-20T18:52:42.497Z,60.53
2018-02-20T18:55:10.893Z,61.03
2018-02-20T18:57:39.218Z,60.03
2018-02-20T19:00:06.828Z,60.55
2018-02-20T19:02:34.500Z,56.50
2018-02-20T19:05:04.425Z,63.00
2018-02-20T19:07:32.112Z,53.85
2018-02-20T19:09:59.699Z,64.70
2018-02-20T19:12:27.246Z,51.33
2018-02-20T19:14:55.547Z,62.78
2018-02-20T19:17:23.242Z,54.00
2018-02-20T19:19:51.731Z,59.70
2018-02-20T19:22:19.264Z,55.80
2018-02-20T19:24:47.557Z,56.17
2018-02-20T19:27:16.128Z,57.67
2018-02-20T19:29:44.813Z,57.38
2018-02-20T19:32:12.677Z,59.03
2018-02-20T19:34:41.016Z,57.28
2018-02-20T19:37:08.764Z,58.42
2018-02-20T19:39:37.323Z,58.17
2018-02-20T19:42:05.178Z,56.35
2018-02-20T19:44:33.193Z,58.03
2018-02-20T19:47:00.798Z,64.85
2018-02-20T19:49:28.333Z,56.70
2018-02-20T19:51:55.862Z,57.25
2018-02-20T19:54:23.355Z,56.25
2018-02-20T19:56:50.936Z,55.00
2018-02-20T19:59:18.647Z,58.00
2018-02-20T20:01:46.242Z,63.65
2018-02-20T20:04:13.922Z,58.05
2018-02-20T20:06:41.714Z,57.30
2018-02-20T20:09:11.085Z,57.67
2018-02-20T20:11:39.040Z,54.20
2018-02-20T20:14:06.900Z,60.42
2018-02-20T20:16:35.346Z,56.85
2018-02-20T20:19:03.127Z,49.97
2018-02-20T20:21:35.993Z,55.50
2018-02-20T20:24:03.747Z,59.38
2018-02-20T20:26:31.315Z,59.35
2018-02-20T20:28:59.734Z,55.45
2018-02-20T20:31:28.064Z,62.40
2018-02-20T20:33:57.292Z,65.87
2018-02-20T20:36:26.277Z,65.60
2018-02-20T20:38:53.925Z,64.35
2018-02-20T20:41:23.790Z,66.95
2018-02-20T20:43:52.420Z,61.03
2018-02-20T20:46:21.878Z,66.03
2018-02-20T20:48:51.158Z,58.05
2018-02-20T20:51:19.873Z,61.90
2018-02-20T20:53:47.520Z,66.03
2018-02-20T20:56:15.095Z,67.90
2018-02-20T20:58:42.703Z,59.75
2018-02-20T21:01:10.366Z,66.32
2018-02-20T21:03:38.030Z,60.97
2018-02-20T21:06:05.546Z,62.05
2018-02-20T21:08:33.175Z,64.28
2018-02-20T21:11:00.747Z,71.75
2018-02-20T21:13:28.389Z,62.97
2018-02-20T21:15:55.916Z,62.70
2018-02-20T21:18:24.268Z,63.53
2018-02-20T21:20:52.641Z,62.28
2018-02-20T21:23:21.038Z,65.70
2018-02-20T21:25:48.646Z,62.97
2018-02-20T21:28:16.242Z,64.72
2018-02-20T21:30:43.874Z,64.00
2018-02-20T21:33:11.433Z,72.25
2018-02-20T21:35:39.039Z,64.55
2018-02-20T21:38:06.807Z,67.97
2018-02-20T21:40:35.127Z,67.00
2018-02-20T21:43:02.630Z,67.78
2018-02-20T21:45:30.481Z,61.58
2018-02-20T21:47:58.454Z,71.60
2018-02-20T21:50:26.880Z,58.87
2018-02-20T21:52:55.181Z,65.60
2018-02-20T21:55:23.663Z,76.00
2018-02-20T21:57:51.218Z,70.72
2018-02-20T22:00:18.931Z,81.05
2018-02-20T22:02:46.555Z,72.72
2018-02-20T22:05:14.215Z,71.22
2018-02-20T22:07:42.810Z,75.05
2018-02-20T22:10:10.430Z,73.43
2018-02-20T22:12:38.816Z,74.47
2018-02-20T22:15:06.713Z,74.40
2018-02-20T22:17:50.909Z,84.75
2018-02-20T22:20:42.039Z,72.40
2018-02-20T22:23:33.480Z,68.75
2018-02-20T22:26:04.164Z,70.72
2018-02-20T22:28:31.892Z,77.47
2018-02-20T22:31:00.022Z,70.05
2018-02-20T22:33:30.908Z,80.53
2018-02-20T22:35:58.453Z,76.22
2018-02-20T22:38:32.481Z,71.80
2018-02-20T22:41:00.852Z,68.43
2018-02-20T22:43:36.392Z,80.15
2018-02-20T22:46:19.147Z,73.22
2018-02-20T22:48:52.931Z,74.32
2018-02-20T22:51:23.131Z,66.85
2018-02-20T22:53:51.501Z,76.95
2018-02-20T22:56:19.850Z,73.28
2018-02-20T22:59:02.696Z,72.75
2018-02-20T23:01:30.826Z,70.20
2018-02-20T23:04:03.985Z,76.10
2018-02-20T23:06:49.087Z,78.15
2018-02-20T23:09:21.138Z,80.07
2018-02-20T23:11:52.735Z,72.97
2018-02-20T23:14:51.379Z,81.90
2018-02-20T23:17:21.838Z,72.72
2018-02-20T23:19:49.458Z,72.78
2018-02-20T23:22:17.640Z,80.12
2018-02-20T23:24:47.112Z,82.68
2018-02-20T23:27:18.222Z,82.10
2018-02-20T23:29:50.519Z,77.47
2018-02-20T23:32:19.823Z,75.12
2018-02-20T23:34:47.512Z,80.43
2018-02-20T23:37:15.375Z,72.20
2018-02-20T23:39:43.102Z,80.03
2018-02-20T23:42:10.757Z,77.72
2018-02-20T23:44:38.471Z,79.40
2018-02-20T23:47:06.243Z,84.03
2018-02-20T23:49:33.870Z,85.22
2018-02-20T23:52:01.559Z,86.68
2018-02-20T23:54:29.525Z,83.95
2018-02-20T23:56:58.085Z,86.07
2018-02-20T23:59:25.831Z,85.18
